Time;durP1;ratioP1;P1;durP2;ratioP2;P2;SDS_P1;SDS_P2;PMS_P1;PMS_P2;Temp;Humidity;BMP_temperature;BMP_pressure;BME280_temperature;BME280_humidity;BME280_pressure;Samples;Min_cycle;Max_cycle;Signal;HPM_P1;HPM_P2
2022/11/05 00:20:26;;;;;;;16.20;9.40;;;;;;;10.34;100.00;99575.30;639536;1307;139543;-84
2022/11/05 00:35:29;;;;;;;20.00;12.00;;;;;;;10.30;100.00;99574.25;639792;1305;139409;-82
2022/11/05 00:50:33;;;;;;;19.30;11.10;;;;;;;10.20;100.00;99558.11;639082;1304;139178;-83
2022/11/05 01:05:52;;;;;;;22.70;11.30;;;;;;;10.18;100.00;99539.29;638503;1297;139073;-82
2022/11/05 01:20:55;;;;;;;21.40;10.50;;;;;;;10.12;100.00;99526.14;639298;1312;139751;-82
2022/11/05 01:35:58;;;;;;;25.40;14.20;;;;;;;10.16;100.00;99521.25;639465;1312;140168;-83
2022/11/05 01:51:07;;;;;;;21.10;12.00;;;;;;;10.13;100.00;99524.17;639122;1306;140264;-82
2022/11/05 02:06:14;;;;;;;19.60;11.70;;;;;;;10.10;100.00;99518.85;639467;1297;139036;-82
2022/11/05 02:21:33;;;;;;;16.50;9.30;;;;;;;10.03;100.00;99507.84;639182;1304;138791;-81
2022/11/05 02:36:48;;;;;;;23.50;13.40;;;;;;;10.06;100.00;99509.99;639355;1312;138616;-81
2022/11/05 02:51:57;;;;;;;26.30;14.80;;;;;;;10.01;100.00;99523.98;639160;1312;138865;-83
2022/11/05 03:07:14;;;;;;;37.90;17.30;;;;;;;9.98;100.00;99524.57;638720;1310;140343;-83
2022/11/05 03:22:24;;;;;;;29.80;16.90;;;;;;;10.00;100.00;99518.42;639030;1312;139904;-82
2022/11/05 03:37:36;;;;;;;25.60;15.10;;;;;;;9.89;100.00;99502.75;639478;1312;138889;-83
2022/11/05 03:52:47;;;;;;;31.40;16.20;;;;;;;9.96;100.00;99519.35;639159;1307;1097977;-82
2022/11/05 04:38:39;;;;;;;38.40;20.50;;;;;;;10.05;100.00;99560.44;639145;1298;140946;-83
2022/11/05 04:53:43;;;;;;;37.00;21.40;;;;;;;10.15;100.00;99569.16;639961;1307;139269;-83
2022/11/05 05:08:48;;;;;;;32.60;19.30;;;;;;;10.18;100.00;99600.04;649611;1298;139956;-81
2022/11/05 05:23:51;;;;;;;36.40;20.80;;;;;;;10.22;100.00;99610.10;638877;1312;139413;-81
2022/11/05 05:38:55;;;;;;;40.20;23.60;;;;;;;10.27;100.00;99601.67;640203;1290;139921;-81
2022/11/05 05:53:59;;;;;;;38.40;24.30;;;;;;;10.27;100.00;99615.45;638868;1306;138687;-83
2022/11/05 06:09:02;;;;;;;45.50;27.10;;;;;;;10.35;100.00;99640.20;639234;1298;138969;-81
2022/11/05 06:24:07;;;;;;;50.70;28.30;;;;;;;10.39;100.00;99643.81;638852;1297;138951;-81
2022/11/05 06:39:11;;;;;;;54.60;30.70;;;;;;;10.47;100.00;99677.02;639490;1297;140307;-83
2022/11/05 06:54:21;;;;;;;65.50;35.10;;;;;;;10.59;100.00;99698.26;639224;1298;138756;-83
2022/11/05 07:09:25;;;;;;;85.10;49.90;;;;;;;10.60;100.00;99720.20;639587;1305;139391;-83
2022/11/05 07:24:28;;;;;;;223.30;98.00;;;;;;;10.62;100.00;99730.21;640359;1298;140329;-83
2022/11/05 07:39:31;;;;;;;77.50;41.70;;;;;;;10.63;100.00;99750.77;642181;1298;139460;-83
2022/11/05 07:54:35;;;;;;;83.80;46.50;;;;;;;10.71;100.00;99775.36;639981;1304;140087;-83
2022/11/05 08:09:38;;;;;;;182.90;83.30;;;;;;;10.88;100.00;99790.34;639321;1307;140876;-83
2022/11/05 08:24:42;;;;;;;97.60;47.70;;;;;;;11.00;100.00;99806.50;639848;1304;139448;-83
2022/11/05 08:39:45;;;;;;;76.10;38.10;;;;;;;11.15;100.00;99823.64;639949;1313;139101;-82
2022/11/05 08:54:49;;;;;;;60.70;32.80;;;;;;;11.31;100.00;99839.56;641660;1307;140153;-84
2022/11/05 09:09:53;;;;;;;79.10;40.90;;;;;;;11.42;100.00;99862.97;639796;1303;139604;-82
2022/11/05 09:24:57;;;;;;;76.00;39.60;;;;;;;11.49;100.00;99878.95;638969;1303;139548;-82
2022/11/05 09:40:00;;;;;;;75.60;42.70;;;;;;;11.65;100.00;99897.57;639832;1289;138990;-82
2022/11/05 09:55:19;;;;;;;63.40;34.70;;;;;;;11.73;100.00;99912.35;639270;1287;140522;-84
2022/11/05 10:10:32;;;;;;;60.30;32.60;;;;;;;11.79;100.00;99935.59;642389;1304;138784;-83
2022/11/05 10:25:46;;;;;;;66.00;35.50;;;;;;;11.98;100.00;99965.08;641733;1305;139021;-83
2022/11/05 10:41:11;;;;;;;51.10;31.70;;;;;;;11.91;100.00;99987.56;639560;1305;138742;-83
2022/11/05 10:56:33;;;;;;;43.80;25.30;;;;;;;12.00;100.00;100004.29;640031;1298;139414;-83
2022/11/05 11:11:40;;;;;;;38.10;21.30;;;;;;;12.19;100.00;100020.42;640028;1298;141176;-83
2022/11/05 11:26:44;;;;;;;65.30;30.50;;;;;;;12.18;100.00;100039.94;639010;1313;140762;-83
2022/11/05 11:41:57;;;;;;;86.40;43.30;;;;;;;12.43;100.00;100050.20;640297;1303;139391;-84
2022/11/05 11:57:01;;;;;;;49.60;25.80;;;;;;;12.54;100.00;100054.02;638650;1298;140326;-84
2022/11/05 12:12:11;;;;;;;56.70;33.90;;;;;;;12.41;100.00;100073.95;638911;1296;140233;-83
2022/11/05 12:27:29;;;;;;;53.80;28.50;;;;;;;12.30;100.00;100072.91;639021;1298;142116;-84
2022/11/05 12:42:42;;;;;;;94.80;45.60;;;;;;;12.27;100.00;100072.00;638666;1301;141338;-84
2022/11/05 12:57:50;;;;;;;118.70;45.20;;;;;;;12.26;100.00;100102.47;639226;1300;140906;-84
2022/11/05 13:13:17;;;;;;;94.70;38.00;;;;;;;12.18;100.00;100121.83;639560;1297;139833;-83
2022/11/05 13:28:45;;;;;;;66.00;36.10;;;;;;;12.19;100.00;100141.16;638638;1312;139804;-82
2022/11/05 13:43:59;;;;;;;84.60;43.90;;;;;;;12.15;100.00;100167.80;639516;1310;140995;-82
2022/11/05 13:59:31;;;;;;;68.90;30.00;;;;;;;12.06;100.00;100185.84;641494;1298;139284;-83
2022/11/05 14:14:48;;;;;;;114.30;59.20;;;;;;;12.06;100.00;100206.23;638888;1298;141240;-82
2022/11/05 14:29:59;;;;;;;86.60;42.30;;;;;;;12.02;100.00;100235.89;638633;1297;141066;-83
2022/11/05 14:45:24;;;;;;;116.00;46.30;;;;;;;11.93;100.00;100246.64;638459;1291;139331;-83
2022/11/05 15:00:28;;;;;;;28.50;14.50;;;;;;;11.79;100.00;100252.00;639209;1297;139957;-83
2022/11/05 15:15:46;;;;;;;181.10;75.50;;;;;;;11.68;100.00;100258.77;640143;1297;139479;-83
2022/11/05 15:31:01;;;;;;;157.50;62.50;;;;;;;11.64;100.00;100272.85;639891;1297;141567;-83
2022/11/05 15:46:18;;;;;;;80.80;39.30;;;;;;;11.51;100.00;100289.13;639678;1297;139812;-83
2022/11/05 16:01:28;;;;;;;293.10;142.00;;;;;;;11.44;100.00;100309.67;638095;1307;1099096;-82
2022/11/05 16:16:33;;;;;;;59.00;34.80;;;;;;;11.39;100.00;100330.44;638792;1297;139458;-82
2022/11/05 16:31:37;;;;;;;57.20;28.60;;;;;;;11.43;100.00;100345.86;638944;1296;139195;-82
2022/11/05 16:46:45;;;;;;;36.10;19.50;;;;;;;11.44;100.00;100366.62;639530;1310;141253;-81
2022/11/05 17:01:48;;;;;;;59.80;28.30;;;;;;;11.34;100.00;100383.73;638936;1305;140430;-82
2022/11/05 17:17:01;;;;;;;358.70;101.60;;;;;;;11.39;100.00;100392.27;639821;1296;139997;-82
2022/11/05 17:32:05;;;;;;;38.70;19.90;;;;;;;11.25;100.00;100414.89;640721;1289;140279;-82
2022/11/05 17:47:09;;;;;;;34.60;20.30;;;;;;;11.29;100.00;100435.38;639668;1291;139257;-81
2022/11/05 18:02:13;;;;;;;44.90;17.30;;;;;;;11.27;100.00;100445.55;638831;1291;140571;-82
2022/11/05 18:17:17;;;;;;;62.70;29.00;;;;;;;11.27;100.00;100462.30;640605;1297;140918;-83
2022/11/05 18:32:20;;;;;;;45.00;18.70;;;;;;;11.29;100.00;100481.09;641112;1289;141037;-82
2022/11/05 18:47:23;;;;;;;106.10;41.00;;;;;;;11.29;100.00;100501.20;639626;1297;140120;-82
2022/11/05 19:02:27;;;;;;;121.50;52.80;;;;;;;11.26;100.00;100502.52;640376;1288;140625;-83
2022/11/05 19:17:32;;;;;;;68.20;37.90;;;;;;;11.24;100.00;100513.88;640044;1290;141146;-83
2022/11/05 19:32:36;;;;;;;57.00;30.90;;;;;;;11.16;100.00;100519.10;640481;1297;140515;-82
2022/11/05 19:47:40;;;;;;;49.10;28.90;;;;;;;11.09;100.00;100528.48;640288;1291;140992;-83
2022/11/05 20:02:46;;;;;;;95.20;42.50;;;;;;;10.96;100.00;100546.21;640724;1290;139683;-80
2022/11/05 20:17:51;;;;;;;75.60;25.20;;;;;;;10.88;100.00;100554.91;639095;1294;141352;-82
2022/11/05 20:32:57;;;;;;;38.60;18.00;;;;;;;10.78;100.00;100560.00;639292;1298;141045;-81
2022/11/05 20:48:01;;;;;;;52.50;23.10;;;;;;;10.63;100.00;100568.61;638713;1303;140720;-82
2022/11/05 21:03:06;;;;;;;46.20;22.30;;;;;;;10.42;100.00;100580.95;639696;1298;139633;-82
2022/11/05 21:18:10;;;;;;;30.60;15.30;;;;;;;10.29;100.00;100589.83;639186;1298;140518;-81
2022/11/05 21:33:17;;;;;;;39.90;19.30;;;;;;;10.14;100.00;100595.80;639046;1305;141006;-82
2022/11/05 21:48:21;;;;;;;21.80;12.00;;;;;;;9.97;100.00;100600.63;639148;1296;142123;-82
2022/11/05 22:03:25;;;;;;;34.90;20.00;;;;;;;9.84;100.00;100602.04;639613;1304;139278;-81
2022/11/05 22:18:29;;;;;;;28.60;11.40;;;;;;;9.60;100.00;100608.67;639331;1298;141464;-82
2022/11/05 22:33:32;;;;;;;17.30;10.30;;;;;;;9.52;100.00;100621.27;638907;1311;140766;-81
2022/11/05 22:48:38;;;;;;;35.50;16.20;;;;;;;9.10;100.00;100637.45;638941;1313;141346;-82
2022/11/05 23:03:43;;;;;;;26.80;15.10;;;;;;;8.84;100.00;100643.05;639043;1297;140910;-81
2022/11/05 23:34:08;;;;;;;26.60;12.90;;;;;;;8.05;100.00;100653.30;638602;1298;139348;-82
2022/11/05 23:49:12;;;;;;;20.40;10.20;;;;;;;7.77;100.00;100659.32;638927;1304;140666;-80
